Belmullet, Ireland

7:55 PM IST on August 22, 2014 (GMT +0100)
Sligo | Change Station
CLOSE
Current Station
Airport
Location: Sligo Airport,
Elevation: 10 ft
Nearby Weather Stations

Elev 10 ft 54.28 °N, 8.60 °W | Updated 25 minutes ago

Mostly Cloudy
Mostly Cloudy
55 °F
Feels Like 55 °F
N
13
Wind Variable Wind from NW

Today
High -- | Low -- °F
--% Chance of Precip.
Yesterday
High -- | Low -- °F
Precip. -- in
6:29 AM 8:55 PM
Waning Crescent, 7% visible
Pressure 30.01 in
Visibility 6.2 miles
Clouds Scattered Clouds 3000 ft
Mostly Cloudy 6000 ft
Dew Point 45 °F
Humidity 67%
Rainfall 0.00 in
Snow Depth Not available.
UV 0 out of 12
Pollen Not available.
Air Quality Not available.
Flu Activity Not available.
METAR EISG 221830Z 32011KT 9999 SCT030 BKN060 13/07 Q1016

More Conditions Fewer Conditions

Pressure 30.01 in
Visibility 6.2 miles
Clouds Scattered Clouds 3000 ft
Mostly Cloudy 6000 ft
Dew Point 45 °F
Humidity 67%
Rainfall 0.00 in
Snow Depth Not available.
UV 0 out of 12
Pollen Not available.
Air Quality Not available.
Flu Activity Not available.
METAR EISG 221830Z 32011KT 9999 SCT030 BKN060 13/07 Q1016

More Conditions Fewer Conditions

10-Day Weather Forecast

Almanac

Astronomy

Aug. 22, 2014 Rise Set
Actual Time 6:29 AM IST 8:55 PM IST
Civil Twilight 5:50 AM IST 9:34 PM IST
Nautical Twilight 4:59 AM IST 10:24 PM IST
Astronomical Twilight 3:58 AM IST 11:24 PM IST
Moon 3:27 AM IST 7:04 PM IST
Length of Visible Light 15h 44m
Length of Day
14h 25m
Tomorrow will be 4m 7s shorter.
Waning Crescent, 7% of the Moon is Illuminated
Today
Waning Crescent
Aug 25
New
Sep 2
First Quarter
Sep 8
Full
Sep 15
Last Quarter

Today's Extremes

Country Highs Country Lows

Community

WunderPhotos

Upload Photos

1,746,216 photos uploaded!

Nearby

Snow Depth

Not available.

Earthquake Activity

City Distance Mag. Time & Date
No recent earthquake activity has been reported nearby.
Minimum magnitude displayed is 2.5.

Coastal Water Temperatures

Place Temperature
No Stations Reporting

Nearby Weather Stations